createdAt,value
2023-03-04T00:00:03.549Z,-0.30
2023-03-04T00:01:03.570Z,-0.20
2023-03-04T00:02:03.585Z,-0.30
2023-03-04T00:03:03.688Z,-0.30
2023-03-04T00:04:03.604Z,-0.30
2023-03-04T00:05:03.520Z,-0.30
2023-03-04T00:06:03.607Z,-0.30
2023-03-04T00:07:03.595Z,-0.30
2023-03-04T00:08:03.618Z,-0.30
2023-03-04T00:09:02.624Z,-0.30
2023-03-04T00:10:03.692Z,-0.30
2023-03-04T00:11:03.640Z,-0.30
2023-03-04T00:12:03.570Z,-0.30
2023-03-04T00:13:03.485Z,-0.30
2023-03-04T00:14:03.502Z,-0.30
2023-03-04T00:15:03.850Z,-0.30
2023-03-04T00:16:03.595Z,-0.30
2023-03-04T00:17:02.710Z,-0.30
2023-03-04T00:18:02.644Z,-0.30
2023-03-04T00:19:03.538Z,-0.30
2023-03-04T00:20:02.681Z,-0.30
2023-03-04T00:21:02.660Z,-0.30
2023-03-04T00:22:02.706Z,-0.30
2023-03-04T00:23:02.705Z,-0.30
2023-03-04T00:24:02.613Z,-0.30
2023-03-04T00:25:02.638Z,-0.30
2023-03-04T00:26:03.536Z,-0.30
2023-03-04T00:27:02.663Z,-0.30
2023-03-04T00:28:03.598Z,-0.30
2023-03-04T00:29:03.678Z,-0.30
2023-03-04T00:30:03.566Z,-0.30
2023-03-04T00:31:02.751Z,-0.30
2023-03-04T00:32:02.762Z,-0.30
2023-03-04T00:33:03.550Z,-0.30
2023-03-04T00:34:03.570Z,-0.30
2023-03-04T00:35:03.525Z,-0.30
2023-03-04T00:36:03.520Z,-0.30
2023-03-04T00:37:03.472Z,-0.30
2023-03-04T00:38:03.509Z,-0.30
2023-03-04T00:39:03.507Z,-0.30
2023-03-04T00:40:03.481Z,-0.30
2023-03-04T00:41:03.517Z,-0.30
2023-03-04T00:42:03.476Z,-0.30
2023-03-04T00:43:03.510Z,-0.30
2023-03-04T00:44:03.425Z,-0.30
2023-03-04T00:45:03.452Z,-0.30
2023-03-04T00:46:03.654Z,-0.30
2023-03-04T00:47:03.522Z,-0.30
2023-03-04T00:48:03.581Z,-0.30
2023-03-04T00:49:03.538Z,-0.30
2023-03-04T00:50:03.579Z,-0.30
2023-03-04T00:51:03.524Z,-0.30
2023-03-04T00:52:03.554Z,-0.30
2023-03-04T00:53:03.514Z,-0.30
2023-03-04T00:54:03.557Z,-0.30
2023-03-04T00:55:02.639Z,-0.30
2023-03-04T00:56:02.759Z,-0.30
2023-03-04T00:57:02.769Z,-0.30
2023-03-04T00:58:02.797Z,-0.30
2023-03-04T00:59:02.848Z,-0.20
2023-03-04T01:00:02.772Z,-0.30
2023-03-04T01:01:02.849Z,-0.20
2023-03-04T01:02:02.977Z,-0.20
2023-03-04T01:03:02.861Z,-0.20
2023-03-04T01:04:02.784Z,-0.20
2023-03-04T01:05:02.840Z,-0.20
2023-03-04T01:06:02.901Z,-0.20
2023-03-04T01:07:02.937Z,-0.20
2023-03-04T01:08:02.849Z,-0.20
2023-03-04T01:09:02.846Z,-0.20
2023-03-04T01:10:03.155Z,-0.20
2023-03-04T01:11:03.090Z,-0.20
2023-03-04T01:12:03.052Z,-0.20
2023-03-04T01:13:03.133Z,-0.20
2023-03-04T01:14:03.065Z,-0.20
2023-03-04T01:15:02.975Z,-0.20
2023-03-04T01:16:03.053Z,-0.20
2023-03-04T01:17:03.078Z,-0.20
2023-03-04T01:18:03.171Z,-0.20
2023-03-04T01:19:03.125Z,-0.20
2023-03-04T01:20:02.990Z,-0.20
2023-03-04T01:21:03.110Z,-0.20
2023-03-04T01:22:03.045Z,-0.20
2023-03-04T01:23:03.128Z,-0.20
2023-03-04T01:24:03.038Z,-0.20
2023-03-04T01:25:03.057Z,-0.10
2023-03-04T01:26:03.087Z,-0.10
2023-03-04T01:27:03.066Z,-0.20
2023-03-04T01:28:03.109Z,-0.10
2023-03-04T01:29:02.978Z,-0.20
2023-03-04T01:30:02.918Z,-0.10
2023-03-04T01:31:03.105Z,-0.10
2023-03-04T01:32:03.062Z,-0.10
2023-03-04T01:33:02.961Z,-0.10
2023-03-04T01:34:02.939Z,-0.10
2023-03-04T01:35:02.866Z,-0.10
2023-03-04T01:36:03.333Z,-0.10
2023-03-04T01:37:03.383Z,-0.10
2023-03-04T01:38:04.273Z,-0.10
2023-03-04T01:39:03.460Z,-0.10
2023-03-04T01:40:03.431Z,-0.10
2023-03-04T01:41:03.435Z,-0.10
2023-03-04T01:42:03.406Z,-0.10
2023-03-04T01:43:03.267Z,-0.10
2023-03-04T01:44:03.320Z,-0.10
2023-03-04T01:45:03.294Z,-0.10
2023-03-04T01:46:03.270Z,-0.10
2023-03-04T01:47:03.230Z,-0.10
2023-03-04T01:48:03.346Z,-0.10
2023-03-04T01:49:03.315Z,-0.10
2023-03-04T01:50:03.202Z,-0.10
2023-03-04T01:51:03.252Z,0.00
2023-03-04T01:52:03.214Z,-0.10
2023-03-04T01:53:03.302Z,-0.10
2023-03-04T01:54:03.397Z,-0.10
2023-03-04T01:55:03.386Z,-0.10
2023-03-04T01:56:03.345Z,0.00
2023-03-04T01:57:03.342Z,0.00
2023-03-04T01:58:03.414Z,0.00
2023-03-04T01:59:03.391Z,0.00
2023-03-04T02:00:03.355Z,0.00
2023-03-04T02:01:03.290Z,0.00
2023-03-04T02:02:03.363Z,0.00
2023-03-04T02:03:03.286Z,0.00
2023-03-04T02:04:03.342Z,0.00
2023-03-04T02:05:03.324Z,0.00
2023-03-04T02:06:03.345Z,0.00
2023-03-04T02:07:03.305Z,0.00
2023-03-04T02:08:03.221Z,0.00
2023-03-04T02:09:03.294Z,0.00
2023-03-04T02:10:03.365Z,0.00
2023-03-04T02:11:03.389Z,0.00
2023-03-04T02:12:03.356Z,0.00
2023-03-04T02:13:03.443Z,0.00
2023-03-04T02:14:03.386Z,0.00
2023-03-04T02:15:03.364Z,0.00
2023-03-04T02:16:03.372Z,0.00
2023-03-04T02:17:03.317Z,0.00
2023-03-04T02:18:03.489Z,0.00
2023-03-04T02:19:03.439Z,0.00
2023-03-04T02:20:03.449Z,0.00
2023-03-04T02:21:03.429Z,0.00
2023-03-04T02:22:03.380Z,0.00
2023-03-04T02:23:03.471Z,0.10
2023-03-04T02:24:03.432Z,0.10
2023-03-04T02:25:03.478Z,0.10
2023-03-04T02:26:03.550Z,0.10
2023-03-04T02:27:03.551Z,0.10
2023-03-04T02:28:03.530Z,0.10
2023-03-04T02:29:03.454Z,0.10
2023-03-04T02:30:03.450Z,0.10
2023-03-04T02:31:03.643Z,0.10
2023-03-04T02:32:03.604Z,0.10
2023-03-04T02:33:03.619Z,0.10
2023-03-04T02:34:03.676Z,0.10
2023-03-04T02:35:02.587Z,0.10
2023-03-04T02:36:02.644Z,0.10
2023-03-04T02:37:02.796Z,0.10
2023-03-04T02:38:02.757Z,0.10
2023-03-04T02:39:02.630Z,0.10
2023-03-04T02:40:02.636Z,0.10
2023-03-04T02:41:02.672Z,0.20
2023-03-04T02:42:02.656Z,0.20
2023-03-04T02:43:03.569Z,0.20
2023-03-04T02:44:03.609Z,0.20
2023-03-04T02:45:02.671Z,0.20
2023-03-04T02:46:02.707Z,0.20
2023-03-04T02:47:02.653Z,0.20
2023-03-04T02:48:03.567Z,0.20
2023-03-04T02:49:03.638Z,0.20
2023-03-04T02:50:03.611Z,0.20
2023-03-04T02:51:03.533Z,0.20
2023-03-04T02:52:03.629Z,0.20
2023-03-04T02:53:02.708Z,0.20
2023-03-04T02:54:03.578Z,0.20
2023-03-04T02:55:02.744Z,0.20
2023-03-04T02:56:03.617Z,0.20
2023-03-04T02:57:02.625Z,0.20
2023-03-04T02:58:02.636Z,0.20
2023-03-04T02:59:02.707Z,0.20
2023-03-04T03:00:02.775Z,0.20
2023-03-04T03:01:02.733Z,0.20
2023-03-04T03:02:02.793Z,0.30
2023-03-04T03:03:02.693Z,0.30
2023-03-04T03:04:03.660Z,0.30
2023-03-04T03:05:03.608Z,0.30
2023-03-04T03:06:03.631Z,0.30
2023-03-04T03:07:03.566Z,0.30
2023-03-04T03:08:02.685Z,0.30
2023-03-04T03:09:02.680Z,0.30
2023-03-04T03:10:02.635Z,0.30
2023-03-04T03:11:02.718Z,0.30
2023-03-04T03:12:02.821Z,0.30
2023-03-04T03:13:02.880Z,0.30
2023-03-04T03:14:02.957Z,0.30
2023-03-04T03:15:02.997Z,0.30
2023-03-04T03:16:03.072Z,0.30
2023-03-04T03:17:03.074Z,0.30
2023-03-04T03:18:03.110Z,0.30
2023-03-04T03:19:03.062Z,0.30
2023-03-04T03:20:03.009Z,0.30
2023-03-04T03:21:03.129Z,0.30
2023-03-04T03:22:03.054Z,0.40
2023-03-04T03:23:03.070Z,0.30
2023-03-04T03:24:03.053Z,0.30
2023-03-04T03:25:03.183Z,0.30
2023-03-04T03:26:03.142Z,0.40
2023-03-04T03:27:03.263Z,0.40
2023-03-04T03:28:03.174Z,0.40
2023-03-04T03:29:03.173Z,0.40
2023-03-04T03:30:03.242Z,0.40
2023-03-04T03:31:03.206Z,0.40
2023-03-04T03:32:03.309Z,0.40
2023-03-04T03:33:03.329Z,0.40
2023-03-04T03:34:03.349Z,0.40
2023-03-04T03:35:03.359Z,0.40
2023-03-04T03:36:03.567Z,0.40
2023-03-04T03:37:03.381Z,0.40
2023-03-04T03:38:03.408Z,0.40
2023-03-04T03:39:03.508Z,0.40
2023-03-04T03:40:03.540Z,0.40
2023-03-04T03:41:02.940Z,0.40
2023-03-04T03:42:02.900Z,0.40
2023-03-04T03:43:02.889Z,0.50
2023-03-04T03:44:02.946Z,0.40
2023-03-04T03:45:02.907Z,0.50
2023-03-04T03:46:02.983Z,0.50
2023-03-04T03:47:02.878Z,0.50
2023-03-04T03:48:03.424Z,0.50
2023-03-04T03:49:03.406Z,0.50
2023-03-04T03:50:03.469Z,0.50
2023-03-04T03:51:03.342Z,0.50
2023-03-04T03:52:03.412Z,0.50
2023-03-04T03:53:03.409Z,0.50
2023-03-04T03:54:03.468Z,0.50
2023-03-04T03:55:03.488Z,0.50
2023-03-04T03:56:02.633Z,0.50
2023-03-04T03:57:02.655Z,0.50
2023-03-04T03:58:02.647Z,0.50
2023-03-04T03:59:02.963Z,0.50
2023-03-04T04:00:03.035Z,0.50
2023-03-04T04:01:03.065Z,0.50
2023-03-04T04:02:03.405Z,0.50
2023-03-04T04:03:03.256Z,0.50
2023-03-04T04:04:03.123Z,0.50
2023-03-04T04:05:03.242Z,0.50
2023-03-04T04:06:03.241Z,0.50
2023-03-04T04:07:03.270Z,0.50
2023-03-04T04:08:03.203Z,0.50
2023-03-04T04:09:03.169Z,0.50
2023-03-04T04:10:03.322Z,0.50
2023-03-04T04:11:03.374Z,0.50
2023-03-04T04:12:03.346Z,0.50
2023-03-04T04:13:03.315Z,0.60
2023-03-04T04:14:03.372Z,0.60
2023-03-04T04:15:03.406Z,0.60
2023-03-04T04:16:03.336Z,0.60
2023-03-04T04:17:02.979Z,0.60
2023-03-04T04:18:02.979Z,0.60
2023-03-04T04:19:02.990Z,0.60
2023-03-04T04:20:02.966Z,0.60
2023-03-04T04:21:02.917Z,0.60
2023-03-04T04:22:02.883Z,0.60
2023-03-04T04:23:03.469Z,0.60
2023-03-04T04:24:03.511Z,0.60
2023-03-04T04:25:03.505Z,0.60
2023-03-04T04:26:03.515Z,0.60
2023-03-04T04:27:03.457Z,0.60
2023-03-04T04:28:03.495Z,0.60
2023-03-04T04:29:03.457Z,0.60
2023-03-04T04:30:03.518Z,0.60
2023-03-04T04:31:03.514Z,0.60
2023-03-04T04:32:03.520Z,0.60
2023-03-04T04:33:03.379Z,0.60
2023-03-04T04:34:03.462Z,0.60
2023-03-04T04:35:03.519Z,0.60
2023-03-04T04:36:03.442Z,0.70
2023-03-04T04:37:03.577Z,0.70
2023-03-04T04:38:03.474Z,0.70
2023-03-04T04:39:03.577Z,0.70
2023-03-04T04:40:03.524Z,0.70
2023-03-04T04:41:03.645Z,0.70
2023-03-04T04:42:02.699Z,0.70
2023-03-04T04:43:03.582Z,0.70
2023-03-04T04:44:03.566Z,0.70
2023-03-04T04:45:03.475Z,0.70
2023-03-04T04:46:03.538Z,0.70
2023-03-04T04:47:03.576Z,0.70
2023-03-04T04:48:03.449Z,0.70
2023-03-04T04:49:03.469Z,0.70
2023-03-04T04:50:03.449Z,0.70
2023-03-04T04:51:03.486Z,0.70
2023-03-04T04:52:03.407Z,0.70
2023-03-04T04:53:03.491Z,0.70
2023-03-04T04:54:03.490Z,0.70
2023-03-04T04:55:03.396Z,0.70
2023-03-04T04:56:03.478Z,0.70
2023-03-04T04:57:03.547Z,0.70
2023-03-04T04:58:03.472Z,0.70
2023-03-04T04:59:03.576Z,0.70
2023-03-04T05:00:03.505Z,0.70
2023-03-04T05:01:03.487Z,0.70
2023-03-04T05:02:03.408Z,0.80
2023-03-04T05:03:03.596Z,0.70
2023-03-04T05:04:02.614Z,0.70
2023-03-04T05:05:02.754Z,0.80
2023-03-04T05:06:02.692Z,0.80
2023-03-04T05:07:02.789Z,0.80
2023-03-04T05:08:02.871Z,0.80
2023-03-04T05:09:02.790Z,0.80
2023-03-04T05:10:02.719Z,0.80
2023-03-04T05:11:02.780Z,0.80
2023-03-04T05:12:02.808Z,0.80
2023-03-04T05:13:02.737Z,0.80
2023-03-04T05:14:02.683Z,0.80
2023-03-04T05:15:02.742Z,0.80
2023-03-04T05:16:02.847Z,0.80
2023-03-04T05:17:02.793Z,0.80
2023-03-04T05:18:02.815Z,0.80
2023-03-04T05:19:02.819Z,0.80
2023-03-04T05:20:02.746Z,0.80
2023-03-04T05:21:02.721Z,0.80
2023-03-04T05:22:02.755Z,0.80
2023-03-04T05:23:02.732Z,0.80
2023-03-04T05:24:02.846Z,0.80
2023-03-04T05:25:02.993Z,0.80
2023-03-04T05:26:02.997Z,0.80
2023-03-04T05:27:03.015Z,0.80
2023-03-04T05:28:03.020Z,0.80
2023-03-04T05:29:02.958Z,0.90
2023-03-04T05:30:02.933Z,0.80
2023-03-04T05:31:03.019Z,0.80
2023-03-04T05:32:03.083Z,0.80
2023-03-04T05:33:03.079Z,0.90
2023-03-04T05:34:03.089Z,0.90
2023-03-04T05:35:03.149Z,0.90
2023-03-04T05:36:03.053Z,0.90
2023-03-04T05:37:03.115Z,0.90
2023-03-04T05:38:03.154Z,0.90
2023-03-04T05:39:03.137Z,0.90
2023-03-04T05:40:03.097Z,0.90
2023-03-04T05:41:03.164Z,0.90
2023-03-04T05:42:03.197Z,0.90
2023-03-04T05:43:03.187Z,0.90
2023-03-04T05:44:03.283Z,0.90
2023-03-04T05:45:03.264Z,0.90
2023-03-04T05:46:03.416Z,0.90
2023-03-04T05:47:03.437Z,0.90
2023-03-04T05:48:03.381Z,0.90
2023-03-04T05:49:02.814Z,0.90
2023-03-04T05:50:02.733Z,0.90
2023-03-04T05:51:02.721Z,0.90
2023-03-04T05:52:02.831Z,0.90
2023-03-04T05:53:02.727Z,0.90
2023-03-04T05:54:02.709Z,0.90
2023-03-04T05:55:02.835Z,0.90
2023-03-04T05:56:02.841Z,0.90
2023-03-04T05:57:02.787Z,1.00
2023-03-04T05:58:02.740Z,0.90
2023-03-04T05:59:02.767Z,1.00
2023-03-04T06:00:02.728Z,1.00
2023-03-04T06:01:02.655Z,1.00
2023-03-04T06:02:03.270Z,1.00
2023-03-04T06:03:03.328Z,1.00
2023-03-04T06:04:03.329Z,1.00
2023-03-04T06:05:03.198Z,1.00
2023-03-04T06:06:03.122Z,1.00
2023-03-04T06:07:03.120Z,1.00
2023-03-04T06:08:03.148Z,1.00
2023-03-04T06:09:03.191Z,1.00
2023-03-04T06:10:03.162Z,1.00
2023-03-04T06:11:03.194Z,1.00
2023-03-04T06:12:03.343Z,1.00
2023-03-04T06:13:03.325Z,1.00
2023-03-04T06:14:03.447Z,1.00
2023-03-04T06:15:03.385Z,1.00
2023-03-04T06:16:03.352Z,1.00
2023-03-04T06:17:03.372Z,1.00
2023-03-04T06:18:03.386Z,1.00
2023-03-04T06:19:03.324Z,1.00
2023-03-04T06:20:03.412Z,1.00
2023-03-04T06:21:03.474Z,1.00
2023-03-04T06:22:03.570Z,1.00
2023-03-04T06:23:03.496Z,1.00
2023-03-04T06:24:03.464Z,1.10
2023-03-04T06:25:03.544Z,1.10
2023-03-04T06:26:03.436Z,1.10
2023-03-04T06:27:03.440Z,1.10
2023-03-04T06:28:03.499Z,1.10
2023-03-04T06:29:03.571Z,1.10
2023-03-04T06:30:03.680Z,1.10
2023-03-04T06:31:03.588Z,1.10
2023-03-04T06:32:03.432Z,1.10
2023-03-04T06:33:03.375Z,1.10
2023-03-04T06:34:03.322Z,1.10
2023-03-04T06:35:03.342Z,1.10
2023-03-04T06:36:03.446Z,1.10
2023-03-04T06:37:08.616Z,1.10
2023-03-04T06:38:03.452Z,1.10
2023-03-04T06:39:03.601Z,1.10
2023-03-04T06:40:03.755Z,1.10
2023-03-04T06:41:08.322Z,1.10
2023-03-04T06:42:03.075Z,1.10
2023-03-04T06:43:03.045Z,1.10
2023-03-04T06:44:03.145Z,1.20
2023-03-04T06:45:03.059Z,1.20
2023-03-04T06:46:03.128Z,1.20
2023-03-04T06:47:03.192Z,1.20
2023-03-04T06:48:03.256Z,1.20
2023-03-04T06:49:04.258Z,1.20
2023-03-04T06:50:03.580Z,1.20
2023-03-04T06:51:03.661Z,1.20
2023-03-04T06:52:03.627Z,1.20
2023-03-04T06:53:02.611Z,1.20
2023-03-04T06:54:03.758Z,1.20
2023-03-04T06:55:03.556Z,1.20
2023-03-04T06:56:02.699Z,1.30
2023-03-04T06:57:02.727Z,1.30
2023-03-04T06:58:02.636Z,1.30
2023-03-04T06:59:02.761Z,1.30
2023-03-04T07:00:02.879Z,1.30
2023-03-04T07:01:02.731Z,1.30
2023-03-04T07:02:02.815Z,1.30
2023-03-04T07:03:02.853Z,1.30
2023-03-04T07:04:02.902Z,1.30
2023-03-04T07:05:02.846Z,1.40
2023-03-04T07:06:02.843Z,1.40
2023-03-04T07:07:02.897Z,1.40
2023-03-04T07:08:02.841Z,1.40
2023-03-04T07:09:02.966Z,1.40
2023-03-04T07:10:02.904Z,1.40
2023-03-04T07:11:02.971Z,1.40
2023-03-04T07:12:03.000Z,1.40
2023-03-04T07:13:03.085Z,1.40
2023-03-04T07:14:03.079Z,1.40
2023-03-04T07:15:03.034Z,1.40
2023-03-04T07:16:03.086Z,1.40
2023-03-04T07:17:03.052Z,1.40
2023-03-04T07:18:03.116Z,1.50
2023-03-04T07:19:03.157Z,1.50
2023-03-04T07:20:03.115Z,1.50
2023-03-04T07:21:03.109Z,1.50
2023-03-04T07:22:03.228Z,1.50
2023-03-04T07:23:03.238Z,1.50
2023-03-04T07:24:03.323Z,1.50
2023-03-04T07:25:03.268Z,1.50
2023-03-04T07:26:03.253Z,1.50
2023-03-04T07:27:03.302Z,1.50
2023-03-04T07:28:03.506Z,1.50
2023-03-04T07:29:03.477Z,1.50
2023-03-04T07:30:03.565Z,1.50
2023-03-04T07:31:03.647Z,1.60
2023-03-04T07:32:02.779Z,1.60
2023-03-04T07:33:02.673Z,1.60
2023-03-04T07:34:02.727Z,1.60
2023-03-04T07:35:02.882Z,1.60
2023-03-04T07:36:02.920Z,1.60
2023-03-04T07:37:02.849Z,1.60
2023-03-04T07:38:02.788Z,1.60
2023-03-04T07:39:02.774Z,1.60
2023-03-04T07:40:02.786Z,1.60
2023-03-04T07:41:02.783Z,1.60
2023-03-04T07:42:02.612Z,1.60
2023-03-04T07:43:02.719Z,1.60
2023-03-04T07:44:02.769Z,1.70
2023-03-04T07:45:03.598Z,1.70
2023-03-04T07:46:02.943Z,1.70
2023-03-04T07:47:02.783Z,1.70
2023-03-04T07:48:02.740Z,1.70
2023-03-04T07:49:02.607Z,1.70
2023-03-04T07:50:02.801Z,1.70
2023-03-04T07:51:02.775Z,1.70
2023-03-04T07:52:02.884Z,1.70
2023-03-04T07:53:03.057Z,1.70
2023-03-04T07:54:03.124Z,1.70
2023-03-04T07:55:03.021Z,1.70
2023-03-04T07:56:03.035Z,1.80
2023-03-04T07:57:03.018Z,1.80
2023-03-04T07:58:03.122Z,1.80
2023-03-04T07:59:03.017Z,1.80
2023-03-04T08:00:03.017Z,1.80
2023-03-04T08:01:03.076Z,1.80
2023-03-04T08:02:03.079Z,1.80
2023-03-04T08:03:03.226Z,1.90
2023-03-04T08:04:03.302Z,1.90
2023-03-04T08:05:03.129Z,1.90
2023-03-04T08:06:03.216Z,1.90
2023-03-04T08:07:03.314Z,1.90
2023-03-04T08:08:03.272Z,1.90
2023-03-04T08:09:03.288Z,1.90
2023-03-04T08:10:03.351Z,1.90
2023-03-04T08:11:03.250Z,1.90
2023-03-04T08:12:03.333Z,1.90
2023-03-04T08:13:03.478Z,1.90
2023-03-04T08:14:03.613Z,1.90
2023-03-04T08:15:03.572Z,2.00
2023-03-04T08:16:03.609Z,2.00
2023-03-04T08:17:03.646Z,2.00
2023-03-04T08:18:03.695Z,2.00
2023-03-04T08:19:03.633Z,2.00
2023-03-04T08:20:03.460Z,2.00
2023-03-04T08:21:03.539Z,2.00
2023-03-04T08:22:03.437Z,2.00
2023-03-04T08:23:03.474Z,2.00
2023-03-04T08:24:03.584Z,2.00
2023-03-04T08:25:03.462Z,2.00
2023-03-04T08:26:03.512Z,2.10
2023-03-04T08:27:03.404Z,2.10
2023-03-04T08:28:03.633Z,2.10
2023-03-04T08:29:03.712Z,2.10
2023-03-04T08:30:03.545Z,2.10
2023-03-04T08:31:03.645Z,2.10
2023-03-04T08:32:03.700Z,2.10
2023-03-04T08:33:03.528Z,2.20
2023-03-04T08:34:03.539Z,2.20
2023-03-04T08:35:03.494Z,2.20
2023-03-04T08:36:03.530Z,2.20
2023-03-04T08:37:03.535Z,2.20
2023-03-04T08:38:03.540Z,2.20
2023-03-04T08:39:02.736Z,2.20
2023-03-04T08:40:02.629Z,2.30
2023-03-04T08:41:02.790Z,2.30
2023-03-04T08:42:02.848Z,2.30
2023-03-04T08:43:02.901Z,2.30
2023-03-04T08:44:02.931Z,2.30
2023-03-04T08:45:02.966Z,2.30
2023-03-04T08:46:03.055Z,2.30
2023-03-04T08:47:03.005Z,2.30
2023-03-04T08:48:03.054Z,2.30
2023-03-04T08:49:03.070Z,2.30
2023-03-04T08:50:03.078Z,2.30
2023-03-04T08:51:02.754Z,2.30
2023-03-04T08:52:02.860Z,2.30
2023-03-04T08:53:02.825Z,2.40
2023-03-04T08:54:02.912Z,2.40
2023-03-04T08:55:02.911Z,2.40
2023-03-04T08:56:02.873Z,2.40
2023-03-04T08:57:02.850Z,2.40
2023-03-04T08:58:02.939Z,2.40
2023-03-04T08:59:02.944Z,2.40
2023-03-04T09:00:03.049Z,2.40
2023-03-04T09:01:03.061Z,2.50
2023-03-04T09:02:03.159Z,2.50
2023-03-04T09:03:02.985Z,2.50
2023-03-04T09:04:03.118Z,2.50
2023-03-04T09:05:03.073Z,2.50
2023-03-04T09:06:03.082Z,2.60
2023-03-04T09:07:03.160Z,2.60
2023-03-04T09:08:03.118Z,2.60
2023-03-04T09:09:03.093Z,2.60
2023-03-04T09:10:03.131Z,2.60
2023-03-04T09:11:03.189Z,2.60
2023-03-04T09:12:03.144Z,2.60
2023-03-04T09:13:03.237Z,2.60
2023-03-04T09:14:03.228Z,2.60
2023-03-04T09:15:10.981Z,2.70
2023-03-04T09:16:03.371Z,2.70
2023-03-04T09:17:03.402Z,2.70
2023-03-04T09:18:03.379Z,2.70
2023-03-04T09:19:03.230Z,2.70
2023-03-04T09:20:04.581Z,2.70
2023-03-04T09:21:03.236Z,2.70
2023-03-04T09:22:03.328Z,2.80
2023-03-04T09:23:03.333Z,2.80
2023-03-04T09:24:03.381Z,2.80
2023-03-04T09:25:02.705Z,2.80
2023-03-04T09:26:02.646Z,2.80
2023-03-04T09:27:02.723Z,2.90
2023-03-04T09:28:02.677Z,2.90
2023-03-04T09:29:03.025Z,2.90
2023-03-04T09:30:03.181Z,2.90
2023-03-04T09:31:03.184Z,2.90
2023-03-04T09:32:03.164Z,3.00
2023-03-04T09:33:03.001Z,3.00
2023-03-04T09:34:03.135Z,3.00
2023-03-04T09:35:03.210Z,3.00
2023-03-04T09:36:03.262Z,3.00
2023-03-04T09:37:03.254Z,3.00
2023-03-04T09:38:03.276Z,3.00
2023-03-04T09:39:03.282Z,3.10
2023-03-04T09:40:03.229Z,3.10
2023-03-04T09:41:03.256Z,3.10
2023-03-04T09:42:03.269Z,3.10
2023-03-04T09:43:03.449Z,3.10
2023-03-04T09:44:03.307Z,3.10
2023-03-04T09:45:03.383Z,3.10
2023-03-04T09:46:03.465Z,3.20
2023-03-04T09:47:03.403Z,3.20
2023-03-04T09:48:03.427Z,3.20
2023-03-04T09:49:05.344Z,3.20
2023-03-04T09:50:03.578Z,3.20
2023-03-04T09:51:03.544Z,3.20
2023-03-04T09:52:03.604Z,3.20
2023-03-04T09:53:03.647Z,3.20
2023-03-04T09:54:03.587Z,3.20
2023-03-04T09:55:04.759Z,3.30
2023-03-04T09:56:02.780Z,3.30
2023-03-04T09:57:02.783Z,3.30
2023-03-04T09:58:02.856Z,3.30
2023-03-04T09:59:02.849Z,3.30
2023-03-04T10:00:02.953Z,3.30
2023-03-04T10:01:05.082Z,3.30
2023-03-04T10:02:02.994Z,3.30
2023-03-04T10:03:03.134Z,3.30
2023-03-04T10:04:03.006Z,3.30
2023-03-04T10:05:03.205Z,3.30
2023-03-04T10:06:03.072Z,3.30
2023-03-04T10:07:03.091Z,3.30
2023-03-04T10:08:03.227Z,3.30
2023-03-04T10:09:03.477Z,3.30
2023-03-04T10:10:03.353Z,3.40
2023-03-04T10:11:03.320Z,3.40
2023-03-04T10:12:03.347Z,3.40
2023-03-04T10:13:03.415Z,3.40
2023-03-04T10:14:03.497Z,3.40
2023-03-04T10:15:03.498Z,3.40
2023-03-04T10:16:02.740Z,3.40
2023-03-04T10:17:02.802Z,3.40
2023-03-04T10:18:02.870Z,3.40
2023-03-04T10:19:02.834Z,3.50
2023-03-04T10:20:02.824Z,3.50
2023-03-04T10:21:02.826Z,3.50
2023-03-04T10:22:02.892Z,3.50
2023-03-04T10:23:02.912Z,3.50
2023-03-04T10:24:03.070Z,3.50
2023-03-04T10:25:03.165Z,3.50
2023-03-04T10:26:03.235Z,3.50
2023-03-04T10:27:03.202Z,3.60
2023-03-04T10:28:03.261Z,3.60
2023-03-04T10:29:03.345Z,3.60
2023-03-04T10:30:03.332Z,3.60
2023-03-04T10:31:03.416Z,3.60
2023-03-04T10:32:03.385Z,3.60
2023-03-04T10:33:03.475Z,3.60
2023-03-04T10:34:03.458Z,3.60
2023-03-04T10:35:03.616Z,3.60
2023-03-04T10:36:03.718Z,3.60
2023-03-04T10:37:03.637Z,3.60
2023-03-04T10:38:02.674Z,3.70
2023-03-04T10:39:02.787Z,3.70
2023-03-04T10:40:02.716Z,3.70
2023-03-04T10:41:02.705Z,3.70
2023-03-04T10:42:02.762Z,3.70
2023-03-04T10:43:02.690Z,3.70
2023-03-04T10:44:02.712Z,3.70
2023-03-04T10:45:02.859Z,3.80
2023-03-04T10:46:02.820Z,3.80
2023-03-04T10:47:02.907Z,3.80
2023-03-04T10:48:03.156Z,3.80
2023-03-04T10:49:03.045Z,3.80
2023-03-04T10:50:03.111Z,3.80
2023-03-04T10:51:03.250Z,3.80
2023-03-04T10:52:03.304Z,3.80
2023-03-04T10:53:03.369Z,3.80
2023-03-04T10:54:03.321Z,3.90
2023-03-04T10:55:03.384Z,3.90
2023-03-04T10:56:03.508Z,3.90
2023-03-04T10:57:03.407Z,3.90
2023-03-04T10:58:03.425Z,3.90
2023-03-04T10:59:03.486Z,3.90
2023-03-04T11:00:02.662Z,3.90
2023-03-04T11:01:02.689Z,3.90
2023-03-04T11:02:02.708Z,4.00
2023-03-04T11:03:02.795Z,4.00
2023-03-04T11:04:02.761Z,4.00
2023-03-04T11:05:02.674Z,4.00
2023-03-04T11:06:02.701Z,4.00
2023-03-04T11:07:03.629Z,4.00
2023-03-04T11:08:02.662Z,4.00
2023-03-04T11:09:02.619Z,4.00
2023-03-04T11:10:02.734Z,4.10
2023-03-04T11:11:02.709Z,4.10
2023-03-04T11:12:02.796Z,4.10
2023-03-04T11:13:02.708Z,4.10
2023-03-04T11:14:02.782Z,4.10
2023-03-04T11:15:02.787Z,4.10
2023-03-04T11:16:02.757Z,4.10
2023-03-04T11:17:02.917Z,4.20
2023-03-04T11:18:02.764Z,4.20
2023-03-04T11:19:02.979Z,4.20
2023-03-04T11:20:03.040Z,4.20
2023-03-04T11:21:03.021Z,4.20
2023-03-04T11:22:03.039Z,4.20
2023-03-04T11:23:04.515Z,4.20
2023-03-04T11:24:03.000Z,4.30
2023-03-04T11:25:03.103Z,4.30
2023-03-04T11:26:03.172Z,4.30
2023-03-04T11:27:03.132Z,4.30
2023-03-04T11:28:03.211Z,4.30
2023-03-04T11:29:03.165Z,4.30
2023-03-04T11:30:03.066Z,4.30
2023-03-04T11:31:02.974Z,4.30
2023-03-04T11:32:03.121Z,4.40
2023-03-04T11:33:03.061Z,4.40
2023-03-04T11:34:03.169Z,4.40
2023-03-04T11:35:03.230Z,4.40
2023-03-04T11:36:03.231Z,4.40
2023-03-04T11:37:03.351Z,4.40
2023-03-04T11:38:03.313Z,4.50
2023-03-04T11:39:03.398Z,4.50
2023-03-04T11:40:03.473Z,4.50
2023-03-04T11:41:03.395Z,4.50
2023-03-04T11:42:03.354Z,4.50
2023-03-04T11:43:03.283Z,4.50
2023-03-04T11:44:03.468Z,4.50
2023-03-04T11:45:03.322Z,4.50
2023-03-04T11:46:03.405Z,4.60
2023-03-04T11:47:03.444Z,4.60
2023-03-04T11:48:03.341Z,4.60
2023-03-04T11:49:03.427Z,4.60
2023-03-04T11:50:03.467Z,4.60
2023-03-04T11:51:03.514Z,4.60
2023-03-04T11:52:03.493Z,4.60
2023-03-04T11:53:03.474Z,4.60
2023-03-04T11:54:03.522Z,4.60
2023-03-04T11:55:03.571Z,4.60
2023-03-04T11:56:02.744Z,4.60
2023-03-04T11:57:02.765Z,4.60
2023-03-04T11:58:02.751Z,4.60
2023-03-04T11:59:02.666Z,4.70
2023-03-04T12:00:02.648Z,4.70
2023-03-04T12:01:03.703Z,4.70
2023-03-04T12:02:04.051Z,4.70
2023-03-04T12:03:03.639Z,4.70
2023-03-04T12:04:03.651Z,4.70
2023-03-04T12:05:02.714Z,4.70
2023-03-04T12:06:02.635Z,4.70
2023-03-04T12:07:02.634Z,4.70
2023-03-04T12:08:03.610Z,4.70
2023-03-04T12:09:03.607Z,4.70
2023-03-04T12:10:03.583Z,4.70
2023-03-04T12:11:03.605Z,4.80
2023-03-04T12:12:03.632Z,4.80
2023-03-04T12:13:03.653Z,4.80
2023-03-04T12:14:03.611Z,4.80
2023-03-04T12:15:03.647Z,4.80
2023-03-04T12:16:03.615Z,4.80
2023-03-04T12:17:02.722Z,4.80
2023-03-04T12:18:02.668Z,4.80
2023-03-04T12:19:02.660Z,4.80
2023-03-04T12:20:02.702Z,4.80
2023-03-04T12:21:02.720Z,4.80
2023-03-04T12:22:02.596Z,4.80
2023-03-04T12:23:02.712Z,4.80
2023-03-04T12:24:02.747Z,4.80
2023-03-04T12:25:02.661Z,4.80
2023-03-04T12:26:02.805Z,4.80
2023-03-04T12:27:02.748Z,4.80
2023-03-04T12:28:02.663Z,4.80
2023-03-04T12:29:02.672Z,4.80
2023-03-04T12:30:02.643Z,4.80
2023-03-04T12:31:02.741Z,4.80
2023-03-04T12:32:02.698Z,4.90
2023-03-04T12:33:02.621Z,4.90
2023-03-04T12:34:02.633Z,4.90
2023-03-04T12:35:02.734Z,4.90
2023-03-04T12:36:02.696Z,4.90
2023-03-04T12:37:03.639Z,4.90
2023-03-04T12:38:02.608Z,4.90
2023-03-04T12:39:02.712Z,4.90
2023-03-04T12:40:02.691Z,4.90
2023-03-04T12:41:02.786Z,4.90
2023-03-04T12:42:02.775Z,4.90
2023-03-04T12:43:02.883Z,4.90
2023-03-04T12:44:02.915Z,4.90
2023-03-04T12:45:02.853Z,4.90
2023-03-04T12:46:03.006Z,4.80
2023-03-04T12:47:02.870Z,4.80
2023-03-04T12:48:02.777Z,4.80
2023-03-04T12:49:02.861Z,4.80
2023-03-04T12:50:03.010Z,4.80
2023-03-04T12:51:02.918Z,4.80
2023-03-04T12:52:02.831Z,4.80
2023-03-04T12:53:02.766Z,4.80
2023-03-04T12:54:02.759Z,4.80
2023-03-04T12:55:02.788Z,4.90
2023-03-04T12:56:02.815Z,4.90
2023-03-04T12:57:02.734Z,4.90
2023-03-04T12:58:02.710Z,4.90
2023-03-04T12:59:02.718Z,4.90
2023-03-04T13:00:03.601Z,4.90
2023-03-04T13:01:02.684Z,4.90
2023-03-04T13:02:04.451Z,4.90
2023-03-04T13:03:02.777Z,4.90
2023-03-04T13:04:03.795Z,4.90
2023-03-04T13:05:03.514Z,4.90
2023-03-04T13:06:03.475Z,4.90
2023-03-04T13:07:03.505Z,4.90
2023-03-04T13:08:03.446Z,4.90
2023-03-04T13:09:03.437Z,4.80
2023-03-04T13:10:03.448Z,4.80
2023-03-04T13:11:03.537Z,4.90
2023-03-04T13:12:03.474Z,4.80
2023-03-04T13:13:03.670Z,4.90
2023-03-04T13:14:03.580Z,4.80